createdAt,value
2022-11-14T06:07:38.250Z,4.10
2022-11-14T06:09:28.418Z,3.70
2022-11-14T06:11:20.075Z,3.95
2022-11-14T06:13:13.178Z,4.05
2022-11-14T06:15:03.633Z,3.87
2022-11-14T06:16:53.895Z,4.97
2022-11-14T06:18:44.105Z,4.57
2022-11-14T06:20:34.403Z,6.32
2022-11-14T06:22:24.395Z,5.07
2022-11-14T06:24:14.323Z,6.53
2022-11-14T06:26:06.299Z,5.97
2022-11-14T06:27:56.431Z,5.65
2022-11-14T06:29:46.677Z,5.90
2022-11-14T06:31:36.880Z,5.53
2022-11-14T06:33:33.326Z,5.90
2022-11-14T06:35:23.535Z,6.18
2022-11-14T06:37:13.886Z,5.82
2022-11-14T06:39:03.806Z,5.75
2022-11-14T06:41:00.884Z,5.55
2022-11-14T06:42:51.001Z,5.23
2022-11-14T06:44:40.799Z,5.75
2022-11-14T06:46:30.672Z,5.60
2022-11-14T06:48:20.498Z,5.40
2022-11-14T06:50:10.352Z,5.65
2022-11-14T06:52:00.495Z,5.18
2022-11-14T06:53:50.381Z,5.00
2022-11-14T06:55:40.352Z,4.57
2022-11-14T06:57:30.564Z,4.82
2022-11-14T06:59:20.500Z,5.20
2022-11-14T07:01:24.467Z,5.30
2022-11-14T07:03:17.259Z,4.80
2022-11-14T07:05:07.699Z,4.95
2022-11-14T07:06:58.146Z,4.57
2022-11-14T07:08:48.528Z,5.05
2022-11-14T07:10:38.862Z,4.53
2022-11-14T07:12:28.932Z,4.40
2022-11-14T07:14:19.016Z,4.78
2022-11-14T07:16:08.973Z,4.70
2022-11-14T07:17:59.093Z,4.78
2022-11-14T07:19:48.933Z,4.55
2022-11-14T07:21:38.753Z,4.85
2022-11-14T07:23:28.712Z,4.72
2022-11-14T07:25:18.827Z,4.38
2022-11-14T07:27:08.804Z,4.47
2022-11-14T07:29:02.390Z,4.30
2022-11-14T07:30:53.073Z,4.35
2022-11-14T07:32:43.110Z,4.43
2022-11-14T07:34:33.266Z,4.80
2022-11-14T07:36:23.666Z,4.15
2022-11-14T07:38:13.916Z,4.38
2022-11-14T07:40:04.101Z,4.20
2022-11-14T07:41:54.286Z,4.20
2022-11-14T07:43:44.512Z,4.38
2022-11-14T07:45:34.752Z,4.40
2022-11-14T07:47:24.905Z,4.10
2022-11-14T07:49:14.713Z,4.82
2022-11-14T07:51:06.308Z,4.57
2022-11-14T07:52:56.709Z,4.27
2022-11-14T07:54:46.989Z,4.57
2022-11-14T07:56:37.266Z,4.65
2022-11-14T07:58:27.403Z,3.97
2022-11-14T08:00:18.005Z,3.90
2022-11-14T08:02:12.405Z,4.93
2022-11-14T08:04:02.912Z,4.80
2022-11-14T08:06:00.707Z,4.90
2022-11-14T08:07:51.325Z,4.80
2022-11-14T08:09:41.356Z,4.47
2022-11-14T08:11:35.417Z,4.40
2022-11-14T08:13:32.106Z,4.60
2022-11-14T08:15:23.759Z,4.20
2022-11-14T08:17:14.030Z,4.43
2022-11-14T08:19:07.190Z,4.18
2022-11-14T08:20:57.542Z,4.15
2022-11-14T08:22:47.735Z,4.47
2022-11-14T08:24:37.570Z,4.20
2022-11-14T08:26:32.948Z,4.30
2022-11-14T08:28:24.766Z,4.10
2022-11-14T08:30:14.723Z,4.35
2022-11-14T08:32:04.751Z,4.18
2022-11-14T08:33:54.958Z,4.30
2022-11-14T08:35:44.850Z,3.85
2022-11-14T08:37:34.795Z,4.03
2022-11-14T08:39:24.996Z,4.30
2022-11-14T08:41:14.874Z,4.13
2022-11-14T08:43:05.260Z,3.97
2022-11-14T08:44:55.313Z,4.15
2022-11-14T08:46:48.408Z,4.05
2022-11-14T08:48:38.506Z,3.53
2022-11-14T08:50:28.528Z,3.60
2022-11-14T08:52:18.825Z,4.23
2022-11-14T08:54:09.008Z,3.97
2022-11-14T08:55:58.909Z,3.83
2022-11-14T08:57:49.585Z,3.90
2022-11-14T08:59:39.959Z,3.92
2022-11-14T09:01:29.835Z,4.10
2022-11-14T09:03:19.850Z,3.80
2022-11-14T09:05:10.131Z,4.18
2022-11-14T09:07:00.427Z,4.20
2022-11-14T09:08:50.811Z,3.58
2022-11-14T09:10:41.082Z,3.92
2022-11-14T09:12:31.021Z,3.70
2022-11-14T09:14:20.983Z,4.10
2022-11-14T09:16:11.106Z,3.78
2022-11-14T09:18:00.941Z,3.83
2022-11-14T09:19:50.781Z,3.88
2022-11-14T09:21:40.728Z,3.70
2022-11-14T09:23:31.056Z,3.65
2022-11-14T09:25:21.513Z,3.70
2022-11-14T09:27:11.362Z,3.73
2022-11-14T09:29:01.572Z,3.72
2022-11-14T09:30:52.041Z,3.55
2022-11-14T09:32:41.954Z,3.92
2022-11-14T09:34:31.910Z,3.45
2022-11-14T09:36:21.842Z,3.83
2022-11-14T09:38:12.028Z,3.83
2022-11-14T09:40:01.995Z,3.75
2022-11-14T09:42:00.036Z,3.67
2022-11-14T09:44:30.407Z,3.60
2022-11-14T09:46:47.302Z,3.80
2022-11-14T09:48:37.331Z,3.53
2022-11-14T09:50:35.188Z,3.35
2022-11-14T09:52:40.796Z,3.60
2022-11-14T09:54:39.181Z,3.45
2022-11-14T09:56:29.427Z,3.33
2022-11-14T09:58:20.364Z,3.63
2022-11-14T10:00:19.192Z,3.42
2022-11-14T10:02:32.461Z,3.47
2022-11-14T10:04:55.369Z,3.20
2022-11-14T10:07:07.003Z,3.40
2022-11-14T10:09:18.942Z,3.30
2022-11-14T10:11:20.912Z,3.30
2022-11-14T10:13:16.568Z,3.45
2022-11-14T10:15:16.415Z,3.42
2022-11-14T10:17:44.212Z,3.28
2022-11-14T10:19:58.790Z,3.35
2022-11-14T10:21:54.350Z,3.47
2022-11-14T10:24:19.995Z,3.45
2022-11-14T10:26:24.869Z,3.40
2022-11-14T10:28:39.406Z,3.50
2022-11-14T10:30:47.308Z,3.58
2022-11-14T10:32:50.613Z,3.45
2022-11-14T10:34:50.674Z,3.30
2022-11-14T10:37:12.746Z,3.13
2022-11-14T10:39:19.097Z,3.30
2022-11-14T10:41:09.315Z,3.05
2022-11-14T10:43:03.762Z,3.35
2022-11-14T10:45:15.512Z,3.25
2022-11-14T10:47:08.746Z,3.60
2022-11-14T10:49:00.358Z,3.08
2022-11-14T10:51:12.531Z,2.90
2022-11-14T10:53:04.878Z,3.13
2022-11-14T10:54:59.791Z,3.50
2022-11-14T10:56:51.509Z,3.08
2022-11-14T10:58:48.454Z,3.00
2022-11-14T11:00:39.766Z,3.35
2022-11-14T11:02:52.640Z,3.10
2022-11-14T11:04:44.121Z,3.40
2022-11-14T11:06:34.166Z,2.88
2022-11-14T11:10:35.444Z,3.40
2022-11-14T11:12:48.410Z,3.23
2022-11-14T11:14:38.846Z,3.10
2022-11-14T11:16:28.978Z,3.37
2022-11-14T11:18:25.736Z,3.17
2022-11-14T11:20:24.257Z,3.42
2022-11-14T11:22:37.617Z,3.25
2022-11-14T11:24:32.199Z,3.28
2022-11-14T11:26:26.463Z,3.35
2022-11-14T11:28:20.783Z,3.40
2022-11-14T11:30:19.534Z,3.28
2022-11-14T11:32:09.712Z,2.80
2022-11-14T11:34:02.983Z,2.70
2022-11-14T11:35:59.446Z,3.00
2022-11-14T11:37:56.620Z,3.03
2022-11-14T11:39:51.527Z,2.80
2022-11-14T11:42:07.857Z,2.95
2022-11-14T11:44:02.649Z,3.17
2022-11-14T11:45:53.051Z,3.30
2022-11-14T11:47:43.172Z,3.15
2022-11-14T11:49:50.110Z,3.10
2022-11-14T11:51:44.675Z,3.10
2022-11-14T11:53:36.604Z,3.00
2022-11-14T11:55:32.672Z,3.05
2022-11-14T11:57:24.921Z,2.88
2022-11-14T11:59:26.403Z,2.72
2022-11-14T12:01:16.323Z,2.90
2022-11-14T12:03:11.686Z,3.10
2022-11-14T12:05:01.927Z,2.72
2022-11-14T12:07:14.881Z,2.97
2022-11-14T12:09:19.345Z,3.10
2022-11-14T12:11:14.093Z,3.05
2022-11-14T12:13:19.383Z,3.38
2022-11-14T12:15:12.070Z,10.20
2022-11-14T12:17:23.477Z,11.02
2022-11-14T12:19:16.955Z,11.50
2022-11-14T12:21:16.091Z,10.88
2022-11-14T12:23:44.431Z,12.27
2022-11-14T12:25:39.579Z,12.10
2022-11-14T12:27:35.256Z,12.60
2022-11-14T12:29:25.682Z,12.32
2022-11-14T12:31:16.156Z,12.55
2022-11-14T12:33:11.688Z,12.07
2022-11-14T12:35:03.986Z,11.65
2022-11-14T12:36:54.344Z,12.00
2022-11-14T12:39:02.957Z,12.23
2022-11-14T12:40:57.010Z,12.40
2022-11-14T12:42:49.979Z,12.05
2022-11-14T12:44:40.230Z,12.27
2022-11-14T12:46:35.807Z,12.27
2022-11-14T12:48:25.787Z,13.57
2022-11-14T12:50:30.365Z,11.95
2022-11-14T12:52:46.392Z,13.15
2022-11-14T12:54:43.713Z,13.27
2022-11-14T12:56:33.596Z,14.07
2022-11-14T12:58:42.102Z,14.80
2022-11-14T13:00:32.461Z,15.88
2022-11-14T13:02:45.863Z,15.20
2022-11-14T13:04:46.380Z,14.98
2022-11-14T13:06:44.971Z,14.07
2022-11-14T13:09:03.016Z,14.20
2022-11-14T13:10:52.919Z,14.93
2022-11-14T13:12:56.581Z,14.30
2022-11-14T13:14:53.770Z,14.90
2022-11-14T13:16:43.991Z,14.40
2022-11-14T13:18:34.149Z,15.05
2022-11-14T13:20:32.119Z,14.52
2022-11-14T13:22:40.921Z,15.03
2022-11-14T13:24:55.914Z,14.85
2022-11-14T13:26:55.060Z,15.70
2022-11-14T13:28:47.310Z,15.38
2022-11-14T13:31:15.315Z,16.20
2022-11-14T13:33:05.983Z,16.25
2022-11-14T13:35:00.192Z,15.52
2022-11-14T13:37:09.485Z,16.23
2022-11-14T13:39:31.004Z,16.65
2022-11-14T13:41:46.249Z,16.80
2022-11-14T13:44:05.244Z,17.40
2022-11-14T13:46:05.973Z,16.30
2022-11-14T13:48:30.516Z,16.52
2022-11-14T13:50:31.389Z,15.85
2022-11-14T13:52:21.395Z,14.40
2022-11-14T13:54:17.402Z,13.37
2022-11-14T13:56:26.112Z,13.40
2022-11-14T13:58:37.523Z,12.45
2022-11-14T14:00:27.823Z,12.43
2022-11-14T14:02:36.189Z,11.57
2022-11-14T14:04:57.470Z,10.52
2022-11-14T14:07:06.281Z,10.93
2022-11-14T14:09:14.860Z,10.90
2022-11-14T14:11:26.264Z,10.30
2022-11-14T14:13:35.107Z,10.52
2022-11-14T14:15:48.642Z,10.07
2022-11-14T14:18:04.723Z,9.70
2022-11-14T14:20:19.677Z,9.00
2022-11-14T14:22:22.621Z,9.25
2022-11-14T14:24:35.573Z,9.50
2022-11-14T14:26:40.830Z,8.88
2022-11-14T14:28:47.439Z,8.48
2022-11-14T14:30:37.486Z,8.65
2022-11-14T14:32:27.672Z,8.30
2022-11-14T14:34:28.756Z,8.73
2022-11-14T14:36:28.789Z,8.70
2022-11-14T14:38:23.642Z,8.38
2022-11-14T14:40:27.622Z,7.90
2022-11-14T14:42:17.510Z,8.10
2022-11-14T14:44:17.709Z,8.00
2022-11-14T14:46:07.931Z,8.30
2022-11-14T14:48:13.735Z,7.60
2022-11-14T14:50:13.137Z,7.82
2022-11-14T14:52:22.227Z,8.13
2022-11-14T14:54:25.417Z,7.78
2022-11-14T14:56:22.835Z,7.72
2022-11-14T14:58:23.681Z,7.72
2022-11-14T15:00:16.760Z,7.05
2022-11-14T15:02:13.622Z,7.60
2022-11-14T15:04:07.890Z,7.07
2022-11-14T15:06:05.065Z,7.38
2022-11-14T15:07:56.856Z,7.25
2022-11-14T15:09:57.176Z,7.25
2022-11-14T15:11:51.746Z,7.25
2022-11-14T15:13:41.922Z,7.15
2022-11-14T15:15:31.862Z,7.50
2022-11-14T15:17:22.349Z,7.28
2022-11-14T15:19:12.846Z,7.05
2022-11-14T15:21:22.062Z,7.07
2022-11-14T15:23:15.312Z,7.35
2022-11-14T15:25:15.253Z,7.22
2022-11-14T15:27:16.030Z,6.68
2022-11-14T15:29:23.584Z,7.15
2022-11-14T15:31:22.233Z,6.80
2022-11-14T15:33:44.175Z,6.95
2022-11-14T15:35:35.597Z,6.93
2022-11-14T15:37:25.473Z,6.63
2022-11-14T15:39:24.303Z,7.20
2022-11-14T15:41:24.400Z,6.70
2022-11-14T15:43:42.663Z,6.45
2022-11-14T15:45:39.377Z,6.97
2022-11-14T15:47:30.594Z,6.65
2022-11-14T15:49:25.258Z,6.93
2022-11-14T15:51:15.249Z,6.23
2022-11-14T15:53:20.333Z,6.55
2022-11-14T15:55:18.249Z,6.87
2022-11-14T15:57:15.149Z,6.60
2022-11-14T15:59:05.283Z,6.60
2022-11-14T16:00:55.309Z,7.00
2022-11-14T16:02:56.026Z,6.60
2022-11-14T16:04:47.747Z,7.22
2022-11-14T16:06:38.070Z,6.53
2022-11-14T16:08:28.213Z,6.22
2022-11-14T16:10:20.046Z,6.43
2022-11-14T16:12:10.110Z,6.40
2022-11-14T16:14:00.408Z,6.93
2022-11-14T16:15:50.712Z,6.35
2022-11-14T16:17:43.595Z,6.72
2022-11-14T16:19:33.758Z,6.25
2022-11-14T16:21:23.753Z,6.53
2022-11-14T16:23:13.841Z,6.30
2022-11-14T16:25:04.181Z,6.15
2022-11-14T16:26:54.513Z,7.00
2022-11-14T16:28:44.359Z,6.22
2022-11-14T16:30:34.397Z,6.50
2022-11-14T16:32:24.494Z,6.72
2022-11-14T16:34:22.862Z,6.95
2022-11-14T16:36:12.898Z,7.22
2022-11-14T16:38:03.287Z,7.07
2022-11-14T16:39:53.857Z,7.05
2022-11-14T16:41:44.028Z,6.68
2022-11-14T16:43:34.168Z,7.22
2022-11-14T16:45:24.558Z,6.80
2022-11-14T16:47:14.735Z,6.88
2022-11-14T16:49:04.938Z,7.28
2022-11-14T16:50:56.971Z,7.15
2022-11-14T16:52:47.421Z,7.20
2022-11-14T16:54:37.808Z,6.95
2022-11-14T16:56:28.268Z,7.17
2022-11-14T16:58:18.427Z,6.10
2022-11-14T17:00:10.290Z,6.40
2022-11-14T17:02:01.001Z,7.13
2022-11-14T17:03:51.387Z,6.75
2022-11-14T17:05:53.937Z,6.88
2022-11-14T17:07:44.436Z,6.60
2022-11-14T17:09:34.996Z,6.93
2022-11-14T17:11:25.213Z,6.75
2022-11-14T17:13:19.185Z,7.00
2022-11-14T17:15:11.859Z,6.53
2022-11-14T17:17:02.324Z,6.90
2022-11-14T17:18:53.461Z,6.20
2022-11-14T17:20:43.877Z,6.60
2022-11-14T17:22:34.093Z,6.68
2022-11-14T17:24:30.032Z,7.13
2022-11-14T17:26:21.390Z,6.90
2022-11-14T17:28:11.570Z,6.40
2022-11-14T17:30:01.610Z,6.60
2022-11-14T17:31:52.352Z,6.50
2022-11-14T17:33:42.951Z,6.95
2022-11-14T17:35:35.410Z,6.70
2022-11-14T17:37:25.491Z,6.70
2022-11-14T17:39:16.638Z,6.85
2022-11-14T17:41:07.014Z,6.90
2022-11-14T17:42:57.494Z,6.70
2022-11-14T17:44:47.389Z,6.87
2022-11-14T17:46:37.585Z,6.47
2022-11-14T17:48:28.045Z,6.15
2022-11-14T17:50:18.481Z,6.45
2022-11-14T17:52:08.545Z,6.88
2022-11-14T17:53:58.905Z,6.85
2022-11-14T17:55:55.637Z,6.28
2022-11-14T17:57:46.178Z,6.85
2022-11-14T17:59:37.284Z,7.10
2022-11-14T18:01:28.119Z,6.13
2022-11-14T18:03:18.742Z,6.53
2022-11-14T18:05:08.944Z,6.80
2022-11-14T18:07:04.705Z,7.15
2022-11-14T18:08:55.321Z,6.38
2022-11-14T18:10:45.648Z,6.43
2022-11-14T18:12:35.943Z,6.63
2022-11-14T18:14:26.628Z,6.20
2022-11-14T18:16:18.738Z,6.70
2022-11-14T18:18:09.765Z,6.20
2022-11-14T18:20:00.209Z,6.50
2022-11-14T18:21:53.585Z,6.30
2022-11-14T18:23:49.780Z,6.40
2022-11-14T18:25:40.043Z,6.47
2022-11-14T18:27:30.369Z,6.93
2022-11-14T18:29:21.080Z,6.75
2022-11-14T18:31:11.798Z,6.95
2022-11-14T18:33:02.333Z,6.55
2022-11-14T18:34:53.130Z,6.32
2022-11-14T18:36:43.955Z,6.43
2022-11-14T18:38:34.505Z,6.43
2022-11-14T18:40:25.226Z,6.20
2022-11-14T18:42:15.684Z,6.82
2022-11-14T18:44:06.580Z,6.57
2022-11-14T18:45:57.355Z,6.40
2022-11-14T18:47:48.070Z,6.47
2022-11-14T18:49:38.566Z,6.40
2022-11-14T18:51:31.941Z,5.68
2022-11-14T18:53:24.787Z,6.53
2022-11-14T18:55:15.689Z,6.13
2022-11-14T18:57:07.908Z,6.73
2022-11-14T18:58:58.705Z,6.30
2022-11-14T19:00:49.118Z,6.45
2022-11-14T19:02:39.698Z,6.35
2022-11-14T19:04:29.944Z,6.60
2022-11-14T19:06:20.242Z,6.15
2022-11-14T19:08:11.650Z,6.35
2022-11-14T19:10:02.421Z,6.50
2022-11-14T19:11:53.301Z,5.75
2022-11-14T19:13:43.494Z,5.97
2022-11-14T19:15:34.072Z,6.15
2022-11-14T19:17:24.834Z,6.65
2022-11-14T19:19:17.371Z,6.32
2022-11-14T19:21:07.945Z,6.10
2022-11-14T19:22:58.824Z,6.18
2022-11-14T19:24:50.901Z,5.90
2022-11-14T19:26:42.048Z,6.70
2022-11-14T19:28:34.122Z,6.30
2022-11-14T19:30:26.231Z,6.25
2022-11-14T19:32:16.704Z,6.30
2022-11-14T19:34:07.666Z,6.35
2022-11-14T19:36:11.177Z,6.28
2022-11-14T19:38:01.783Z,6.20
2022-11-14T19:39:52.842Z,6.30
2022-11-14T19:41:43.509Z,5.68
2022-11-14T19:43:34.371Z,5.95
2022-11-14T19:45:25.226Z,6.20
2022-11-14T19:47:15.721Z,5.93
2022-11-14T19:49:06.410Z,5.88
2022-11-14T19:51:13.793Z,5.97
2022-11-14T19:53:04.696Z,6.10
2022-11-14T19:54:55.696Z,6.18
2022-11-14T19:56:46.037Z,5.85
2022-11-14T19:58:37.125Z,5.72
2022-11-14T20:00:29.401Z,6.28
2022-11-14T20:02:20.112Z,5.90
2022-11-14T20:04:12.456Z,5.80
2022-11-14T20:06:05.117Z,6.40
2022-11-14T20:07:55.736Z,6.20
2022-11-14T20:09:46.503Z,6.17
2022-11-14T20:11:37.501Z,6.10
2022-11-14T20:13:40.107Z,6.35
2022-11-14T20:15:32.937Z,6.50
2022-11-14T20:17:23.464Z,6.22
2022-11-14T20:19:14.259Z,5.78
2022-11-14T20:21:11.237Z,5.75
2022-11-14T20:23:02.378Z,6.07
2022-11-14T20:24:53.205Z,6.75
2022-11-14T20:26:43.878Z,5.90
2022-11-14T20:28:34.748Z,6.35
2022-11-14T20:30:25.409Z,6.10
2022-11-14T20:32:19.622Z,5.80
2022-11-14T20:34:10.878Z,6.07
2022-11-14T20:36:22.695Z,6.18
2022-11-14T20:38:13.318Z,6.05
2022-11-14T20:40:04.350Z,5.90
